sensor_id;sensor_type;location;lat;lon;timestamp;P1;durP1;ratioP1;P2;durP2;ratioP2
35757;SDS011;21879;50.110;18.900;2023-07-20T00:02:02;9.30;;;6.40;;
35757;SDS011;21879;50.110;18.900;2023-07-20T00:12:32;10.60;;;7.70;;
35757;SDS011;21879;50.110;18.900;2023-07-20T00:22:59;8.50;;;4.90;;
35757;SDS011;21879;50.110;18.900;2023-07-20T00:33:27;4.80;;;3.20;;
35757;SDS011;21879;50.110;18.900;2023-07-20T00:43:55;3.20;;;2.70;;
35757;SDS011;21879;50.110;18.900;2023-07-20T00:54:22;4.50;;;2.80;;
35757;SDS011;21879;50.110;18.900;2023-07-20T01:04:50;6.30;;;2.80;;
35757;SDS011;21879;50.110;18.900;2023-07-20T01:15:18;6.00;;;3.60;;
35757;SDS011;21879;50.110;18.900;2023-07-20T01:25:50;9.40;;;5.20;;
35757;SDS011;21879;50.110;18.900;2023-07-20T01:36:35;6.50;;;4.80;;
35757;SDS011;21879;50.110;18.900;2023-07-20T01:47:04;11.30;;;4.90;;
35757;SDS011;21879;50.110;18.900;2023-07-20T01:57:32;7.80;;;6.00;;
35757;SDS011;21879;50.110;18.900;2023-07-20T02:08:00;8.80;;;5.60;;
35757;SDS011;21879;50.110;18.900;2023-07-20T02:18:28;8.20;;;5.90;;
35757;SDS011;21879;50.110;18.900;2023-07-20T02:28:56;5.60;;;3.30;;
35757;SDS011;21879;50.110;18.900;2023-07-20T02:39:25;3.70;;;2.60;;
35757;SDS011;21879;50.110;18.900;2023-07-20T02:49:54;2.60;;;2.10;;
35757;SDS011;21879;50.110;18.900;2023-07-20T03:00:22;3.80;;;2.00;;
35757;SDS011;21879;50.110;18.900;2023-07-20T03:10:50;4.40;;;2.10;;
35757;SDS011;21879;50.110;18.900;2023-07-20T03:21:18;4.10;;;2.10;;
35757;SDS011;21879;50.110;18.900;2023-07-20T03:31:46;2.80;;;1.90;;
35757;SDS011;21879;50.110;18.900;2023-07-20T03:42:15;5.20;;;2.60;;
35757;SDS011;21879;50.110;18.900;2023-07-20T03:52:44;10.50;;;2.40;;
35757;SDS011;21879;50.110;18.900;2023-07-20T04:03:12;5.90;;;2.30;;
35757;SDS011;21879;50.110;18.900;2023-07-20T04:13:41;3.70;;;2.30;;
35757;SDS011;21879;50.110;18.900;2023-07-20T04:24:09;5.40;;;2.70;;
35757;SDS011;21879;50.110;18.900;2023-07-20T04:34:40;3.20;;;2.20;;
35757;SDS011;21879;50.110;18.900;2023-07-20T04:45:09;3.50;;;2.00;;
35757;SDS011;21879;50.110;18.900;2023-07-20T04:55:37;4.70;;;2.50;;
35757;SDS011;21879;50.110;18.900;2023-07-20T05:06:07;3.00;;;2.10;;
35757;SDS011;21879;50.110;18.900;2023-07-20T05:16:34;4.40;;;2.80;;
35757;SDS011;21879;50.110;18.900;2023-07-20T05:27:03;4.60;;;2.40;;
35757;SDS011;21879;50.110;18.900;2023-07-20T05:37:31;3.50;;;2.50;;
35757;SDS011;21879;50.110;18.900;2023-07-20T05:47:59;6.80;;;2.90;;
35757;SDS011;21879;50.110;18.900;2023-07-20T05:58:27;5.20;;;3.10;;
35757;SDS011;21879;50.110;18.900;2023-07-20T06:08:56;3.60;;;2.70;;
35757;SDS011;21879;50.110;18.900;2023-07-20T06:19:27;4.70;;;2.40;;
35757;SDS011;21879;50.110;18.900;2023-07-20T06:29:55;4.30;;;2.70;;
35757;SDS011;21879;50.110;18.900;2023-07-20T06:40:23;3.90;;;2.50;;
35757;SDS011;21879;50.110;18.900;2023-07-20T06:50:54;2.20;;;2.00;;
35757;SDS011;21879;50.110;18.900;2023-07-20T07:01:22;1.90;;;1.30;;
35757;SDS011;21879;50.110;18.900;2023-07-20T07:11:50;2.70;;;2.10;;
35757;SDS011;21879;50.110;18.900;2023-07-20T07:22:18;3.90;;;1.80;;
35757;SDS011;21879;50.110;18.900;2023-07-20T07:32:47;3.20;;;1.70;;
35757;SDS011;21879;50.110;18.900;2023-07-20T07:43:16;3.60;;;1.60;;
35757;SDS011;21879;50.110;18.900;2023-07-20T07:53:45;2.10;;;1.60;;
35757;SDS011;21879;50.110;18.900;2023-07-20T08:04:14;2.10;;;1.30;;
35757;SDS011;21879;50.110;18.900;2023-07-20T08:14:43;1.70;;;1.30;;
35757;SDS011;21879;50.110;18.900;2023-07-20T08:25:11;2.90;;;1.20;;
35757;SDS011;21879;50.110;18.900;2023-07-20T08:35:39;3.60;;;1.60;;
35757;SDS011;21879;50.110;18.900;2023-07-20T08:46:08;3.40;;;2.10;;
35757;SDS011;21879;50.110;18.900;2023-07-20T08:56:39;3.70;;;1.80;;
35757;SDS011;21879;50.110;18.900;2023-07-20T09:07:08;4.40;;;1.60;;
35757;SDS011;21879;50.110;18.900;2023-07-20T09:17:38;4.60;;;2.30;;
35757;SDS011;21879;50.110;18.900;2023-07-20T09:28:11;4.70;;;1.90;;
35757;SDS011;21879;50.110;18.900;2023-07-20T09:38:39;4.80;;;3.20;;
35757;SDS011;21879;50.110;18.900;2023-07-20T09:49:11;6.00;;;4.00;;
35757;SDS011;21879;50.110;18.900;2023-07-20T09:59:43;5.50;;;3.50;;
35757;SDS011;21879;50.110;18.900;2023-07-20T10:10:11;7.40;;;6.00;;
35757;SDS011;21879;50.110;18.900;2023-07-20T10:20:42;7.30;;;5.00;;
35757;SDS011;21879;50.110;18.900;2023-07-20T10:31:15;9.30;;;5.00;;
35757;SDS011;21879;50.110;18.900;2023-07-20T10:41:44;7.30;;;5.00;;
35757;SDS011;21879;50.110;18.900;2023-07-20T10:52:13;9.00;;;5.20;;
35757;SDS011;21879;50.110;18.900;2023-07-20T11:02:44;11.00;;;7.10;;
35757;SDS011;21879;50.110;18.900;2023-07-20T11:13:19;6.20;;;5.10;;
35757;SDS011;21879;50.110;18.900;2023-07-20T11:23:51;7.50;;;4.40;;
35757;SDS011;21879;50.110;18.900;2023-07-20T11:34:19;5.10;;;4.00;;
35757;SDS011;21879;50.110;18.900;2023-07-20T11:44:51;3.60;;;3.30;;
35757;SDS011;21879;50.110;18.900;2023-07-20T11:55:19;7.40;;;3.70;;
35757;SDS011;21879;50.110;18.900;2023-07-20T12:05:48;4.30;;;3.40;;
35757;SDS011;21879;50.110;18.900;2023-07-20T12:16:28;6.20;;;4.10;;
35757;SDS011;21879;50.110;18.900;2023-07-20T12:26:57;2.80;;;2.60;;
35757;SDS011;21879;50.110;18.900;2023-07-20T12:37:25;5.90;;;2.70;;
35757;SDS011;21879;50.110;18.900;2023-07-20T12:47:53;4.20;;;2.70;;
35757;SDS011;21879;50.110;18.900;2023-07-20T12:58:20;4.40;;;2.80;;
35757;SDS011;21879;50.110;18.900;2023-07-20T13:08:48;3.50;;;2.70;;
35757;SDS011;21879;50.110;18.900;2023-07-20T13:19:20;4.10;;;2.60;;
35757;SDS011;21879;50.110;18.900;2023-07-20T13:29:48;4.80;;;2.40;;
35757;SDS011;21879;50.110;18.900;2023-07-20T13:40:17;4.30;;;2.90;;
35757;SDS011;21879;50.110;18.900;2023-07-20T13:50:47;2.50;;;2.30;;
35757;SDS011;21879;50.110;18.900;2023-07-20T14:01:18;2.50;;;2.00;;
35757;SDS011;21879;50.110;18.900;2023-07-20T14:11:51;5.90;;;2.90;;
35757;SDS011;21879;50.110;18.900;2023-07-20T14:22:21;5.40;;;2.20;;
35757;SDS011;21879;50.110;18.900;2023-07-20T14:32:50;4.60;;;2.50;;
35757;SDS011;21879;50.110;18.900;2023-07-20T14:43:18;4.30;;;2.30;;
35757;SDS011;21879;50.110;18.900;2023-07-20T14:53:46;4.40;;;2.70;;
35757;SDS011;21879;50.110;18.900;2023-07-20T15:04:14;2.50;;;1.80;;
35757;SDS011;21879;50.110;18.900;2023-07-20T15:14:42;3.90;;;2.40;;
35757;SDS011;21879;50.110;18.900;2023-07-20T15:25:10;3.10;;;2.30;;
35757;SDS011;21879;50.110;18.900;2023-07-20T15:35:37;2.40;;;1.60;;
35757;SDS011;21879;50.110;18.900;2023-07-20T15:46:27;2.30;;;1.70;;
35757;SDS011;21879;50.110;18.900;2023-07-20T15:57:14;3.70;;;2.00;;
35757;SDS011;21879;50.110;18.900;2023-07-20T16:07:41;1.80;;;1.50;;
35757;SDS011;21879;50.110;18.900;2023-07-20T16:18:10;2.50;;;2.00;;
35757;SDS011;21879;50.110;18.900;2023-07-20T16:28:38;1.90;;;1.70;;
35757;SDS011;21879;50.110;18.900;2023-07-20T16:39:06;3.10;;;2.00;;
35757;SDS011;21879;50.110;18.900;2023-07-20T16:49:38;3.30;;;1.90;;
35757;SDS011;21879;50.110;18.900;2023-07-20T17:00:07;3.50;;;2.40;;
35757;SDS011;21879;50.110;18.900;2023-07-20T17:10:39;2.70;;;1.70;;
35757;SDS011;21879;50.110;18.900;2023-07-20T17:21:07;1.90;;;1.80;;
35757;SDS011;21879;50.110;18.900;2023-07-20T17:31:35;2.40;;;2.20;;
35757;SDS011;21879;50.110;18.900;2023-07-20T17:42:04;3.60;;;2.30;;
35757;SDS011;21879;50.110;18.900;2023-07-20T17:52:34;4.20;;;2.30;;
35757;SDS011;21879;50.110;18.900;2023-07-20T18:03:03;3.10;;;2.10;;
35757;SDS011;21879;50.110;18.900;2023-07-20T18:13:31;3.70;;;2.30;;
35757;SDS011;21879;50.110;18.900;2023-07-20T18:23:59;3.30;;;2.20;;
35757;SDS011;21879;50.110;18.900;2023-07-20T18:34:26;4.00;;;2.60;;
35757;SDS011;21879;50.110;18.900;2023-07-20T18:44:54;11.60;;;8.60;;
35757;SDS011;21879;50.110;18.900;2023-07-20T18:55:22;5.30;;;3.80;;
35757;SDS011;21879;50.110;18.900;2023-07-20T19:05:50;4.40;;;3.40;;
35757;SDS011;21879;50.110;18.900;2023-07-20T19:16:18;3.70;;;2.90;;
35757;SDS011;21879;50.110;18.900;2023-07-20T19:26:46;4.30;;;3.80;;
35757;SDS011;21879;50.110;18.900;2023-07-20T19:37:14;4.40;;;2.20;;
35757;SDS011;21879;50.110;18.900;2023-07-20T19:47:41;3.00;;;2.60;;
35757;SDS011;21879;50.110;18.900;2023-07-20T19:58:09;3.10;;;2.40;;
35757;SDS011;21879;50.110;18.900;2023-07-20T20:08:37;6.20;;;4.90;;
35757;SDS011;21879;50.110;18.900;2023-07-20T20:19:05;8.30;;;5.30;;
35757;SDS011;21879;50.110;18.900;2023-07-20T20:29:33;6.00;;;3.70;;
35757;SDS011;21879;50.110;18.900;2023-07-20T20:40:02;5.20;;;3.50;;
35757;SDS011;21879;50.110;18.900;2023-07-20T20:50:30;5.80;;;3.70;;
35757;SDS011;21879;50.110;18.900;2023-07-20T21:00:59;5.30;;;3.90;;
35757;SDS011;21879;50.110;18.900;2023-07-20T21:11:27;5.10;;;3.90;;
35757;SDS011;21879;50.110;18.900;2023-07-20T21:21:55;5.40;;;4.10;;
35757;SDS011;21879;50.110;18.900;2023-07-20T21:32:22;7.30;;;4.80;;
35757;SDS011;21879;50.110;18.900;2023-07-20T21:42:50;6.80;;;4.80;;
35757;SDS011;21879;50.110;18.900;2023-07-20T21:53:18;6.10;;;4.80;;
35757;SDS011;21879;50.110;18.900;2023-07-20T22:03:45;7.60;;;4.80;;
35757;SDS011;21879;50.110;18.900;2023-07-20T22:14:13;6.80;;;5.30;;
35757;SDS011;21879;50.110;18.900;2023-07-20T22:24:41;6.20;;;4.30;;
35757;SDS011;21879;50.110;18.900;2023-07-20T22:35:10;4.30;;;3.40;;
35757;SDS011;21879;50.110;18.900;2023-07-20T22:45:38;6.80;;;4.50;;
35757;SDS011;21879;50.110;18.900;2023-07-20T22:56:06;3.30;;;2.80;;
35757;SDS011;21879;50.110;18.900;2023-07-20T23:06:34;3.90;;;3.50;;
35757;SDS011;21879;50.110;18.900;2023-07-20T23:17:01;4.00;;;2.80;;
35757;SDS011;21879;50.110;18.900;2023-07-20T23:27:31;6.50;;;4.10;;
35757;SDS011;21879;50.110;18.900;2023-07-20T23:38:00;5.50;;;4.50;;
35757;SDS011;21879;50.110;18.900;2023-07-20T23:48:27;4.50;;;4.00;;
35757;SDS011;21879;50.110;18.900;2023-07-20T23:59:00;4.50;;;4.00;;
